KLM115 EDDH-EHAM
Flight info
| Callsign | KLM115 |
|---|---|
| Flight time | 0h 43m |
| Altitude | 26000 |
| Route | WSN5G/33 WSN N125 BLUFA |
| Aircraft | A339/H-SADE1E2E3GHIJ3J5M1P2RWXY/LB2D1 |
Departure
| Time | 2026-04-30 18:31 |
|---|---|
| Airport | Hamburg Helmut Schmidt Airport (EDDH) |
Arrival
| Time | 2026-04-30 19:14 |
|---|---|
| Airport | Amsterdam Airport Schiphol (EHAM) |
| Time | Latitude | Longitude | Altitude | Speed | Heading |
|---|---|---|---|---|---|
| 2026-04-30 17:39 | 53.63418 | 10.00334 | 70 ft | 0 kts | 101° |
| 2026-04-30 18:05 | 53.63421 | 10.00307 | 70 ft | 2 kts | 101° |
| 2026-04-30 18:06 | 53.63434 | 10.00227 | 70 ft | 2 kts | 138° |
| 2026-04-30 18:07 | 53.63450 | 10.00212 | 70 ft | 0 kts | 164° |
| 2026-04-30 18:09 | 53.63363 | 10.00200 | 70 ft | 9 kts | 183° |
| 2026-04-30 18:10 | 53.63095 | 10.00228 | 70 ft | 10 kts | 177° |
| 2026-04-30 18:11 | 53.62966 | 10.00113 | 70 ft | 2 kts | 212° |
| 2026-04-30 18:11 | 53.62901 | 10.00048 | 70 ft | 0 kts | 198° |
| 2026-04-30 18:15 | 53.62870 | 10.00023 | 70 ft | 4 kts | 221° |
| 2026-04-30 18:16 | 53.62853 | 9.99986 | 70 ft | 0 kts | 238° |
| 2026-04-30 18:20 | 53.62850 | 9.99980 | 70 ft | 1 kts | 232° |
| 2026-04-30 18:20 | 53.62848 | 9.99973 | 70 ft | 0 kts | 243° |
| 2026-04-30 18:24 | 53.62806 | 9.99837 | 70 ft | 4 kts | 249° |
| 2026-04-30 18:24 | 53.62815 | 9.99798 | 70 ft | 4 kts | 313° |
| 2026-04-30 18:24 | 53.62842 | 9.99768 | 70 ft | 0 kts | 330° |
| 2026-04-30 18:30 | 53.63695 | 9.99026 | 70 ft | 140 kts | 331° |
| 2026-04-30 18:31 | 53.64729 | 9.98134 | 136 ft | 190 kts | 334° |
| 2026-04-30 18:31 | 53.67076 | 9.96120 | 1862 ft | 185 kts | 335° |
| 2026-04-30 18:32 | 53.69455 | 9.94083 | 3121 ft | 210 kts | 335° |
| 2026-04-30 18:32 | 53.70731 | 9.92715 | 3587 ft | 229 kts | 314° |
| 2026-04-30 18:32 | 53.71214 | 9.87274 | 4353 ft | 267 kts | 250° |
| 2026-04-30 18:33 | 53.70569 | 9.84295 | 4822 ft | 280 kts | 249° |
| 2026-04-30 18:33 | 53.69243 | 9.78033 | 6162 ft | 290 kts | 250° |
| 2026-04-30 18:33 | 53.68584 | 9.74769 | 6832 ft | 295 kts | 251° |
| 2026-04-30 18:34 | 53.67939 | 9.71517 | 7502 ft | 298 kts | 251° |
| 2026-04-30 18:34 | 53.66625 | 9.64852 | 8813 ft | 305 kts | 252° |
| 2026-04-30 18:34 | 53.65957 | 9.61463 | 9458 ft | 309 kts | 252° |
| 2026-04-30 18:35 | 53.65152 | 9.58091 | 10109 ft | 312 kts | 243° |
| 2026-04-30 18:35 | 53.64055 | 9.54971 | 10733 ft | 315 kts | 234° |
| 2026-04-30 18:35 | 53.62752 | 9.51886 | 11163 ft | 329 kts | 232° |
| 2026-04-30 18:36 | 53.59924 | 9.45441 | 11763 ft | 362 kts | 232° |
| 2026-04-30 18:36 | 53.58398 | 9.41932 | 12028 ft | 378 kts | 233° |
| 2026-04-30 18:36 | 53.55196 | 9.34519 | 12656 ft | 406 kts | 232° |
| 2026-04-30 18:37 | 53.53536 | 9.30669 | 13213 ft | 411 kts | 232° |
| 2026-04-30 18:37 | 53.51870 | 9.26808 | 13873 ft | 414 kts | 232° |
| 2026-04-30 18:37 | 53.50159 | 9.22855 | 14505 ft | 418 kts | 232° |
| 2026-04-30 18:37 | 53.48467 | 9.18957 | 15110 ft | 421 kts | 232° |
| 2026-04-30 18:38 | 53.46740 | 9.14983 | 15743 ft | 424 kts | 232° |
| 2026-04-30 18:38 | 53.45000 | 9.10981 | 16370 ft | 428 kts | 232° |
| 2026-04-30 18:38 | 53.43254 | 9.06977 | 16972 ft | 431 kts | 233° |
| 2026-04-30 18:38 | 53.41481 | 9.02911 | 17574 ft | 434 kts | 233° |
| 2026-04-30 18:39 | 53.39691 | 8.98816 | 18180 ft | 437 kts | 233° |
| 2026-04-30 18:39 | 53.37902 | 8.94729 | 18757 ft | 440 kts | 233° |
| 2026-04-30 18:39 | 53.36132 | 8.90543 | 19297 ft | 445 kts | 236° |
| 2026-04-30 18:39 | 53.34593 | 8.86099 | 19848 ft | 448 kts | 243° |
| 2026-04-30 18:40 | 53.33304 | 8.81313 | 20415 ft | 451 kts | 249° |
| 2026-04-30 18:40 | 53.32212 | 8.76434 | 20975 ft | 453 kts | 250° |
| 2026-04-30 18:40 | 53.31147 | 8.71486 | 21517 ft | 456 kts | 250° |
| 2026-04-30 18:40 | 53.30064 | 8.66484 | 22039 ft | 458 kts | 250° |
| 2026-04-30 18:41 | 53.28985 | 8.61525 | 22524 ft | 461 kts | 250° |
| 2026-04-30 18:41 | 53.27888 | 8.56498 | 23008 ft | 464 kts | 250° |
| 2026-04-30 18:41 | 53.26784 | 8.51455 | 23485 ft | 466 kts | 251° |
| 2026-04-30 18:41 | 53.25763 | 8.46318 | 23946 ft | 469 kts | 253° |
| 2026-04-30 18:42 | 53.24780 | 8.41117 | 24400 ft | 471 kts | 253° |
| 2026-04-30 18:42 | 53.22810 | 8.30642 | 25299 ft | 475 kts | 252° |
| 2026-04-30 18:42 | 53.21819 | 8.25400 | 25720 ft | 478 kts | 252° |
| 2026-04-30 18:45 | 53.11774 | 7.72506 | 26389 ft | 481 kts | 252° |
| 2026-04-30 18:45 | 53.10767 | 7.67265 | 26391 ft | 480 kts | 252° |
| 2026-04-30 18:45 | 53.09759 | 7.62036 | 26388 ft | 481 kts | 252° |
| 2026-04-30 18:46 | 53.08735 | 7.56736 | 26388 ft | 481 kts | 252° |
| 2026-04-30 18:46 | 53.07710 | 7.51450 | 26380 ft | 481 kts | 252° |
| 2026-04-30 18:46 | 53.06683 | 7.46170 | 26118 ft | 480 kts | 252° |
| 2026-04-30 18:46 | 53.05661 | 7.40927 | 25737 ft | 476 kts | 252° |
| 2026-04-30 18:47 | 53.04657 | 7.35791 | 25454 ft | 474 kts | 252° |
| 2026-04-30 18:47 | 53.03635 | 7.30585 | 25077 ft | 472 kts | 251° |
| 2026-04-30 18:47 | 53.02625 | 7.25447 | 24664 ft | 469 kts | 251° |
| 2026-04-30 18:47 | 53.01617 | 7.20346 | 24245 ft | 465 kts | 251° |
| 2026-04-30 18:48 | 53.00606 | 7.15310 | 23818 ft | 462 kts | 251° |
| 2026-04-30 18:48 | 52.99586 | 7.10289 | 23401 ft | 459 kts | 250° |
| 2026-04-30 18:48 | 52.98569 | 7.05305 | 22972 ft | 455 kts | 250° |
| 2026-04-30 18:48 | 52.97552 | 7.00335 | 22539 ft | 452 kts | 250° |
| 2026-04-30 18:49 | 52.96552 | 6.95450 | 22114 ft | 449 kts | 250° |
| 2026-04-30 18:49 | 52.95512 | 6.90624 | 21673 ft | 445 kts | 245° |
| 2026-04-30 18:49 | 52.94152 | 6.86113 | 21172 ft | 442 kts | 240° |
| 2026-04-30 18:49 | 52.92662 | 6.81699 | 20705 ft | 439 kts | 239° |
| 2026-04-30 18:50 | 52.91166 | 6.77320 | 20271 ft | 435 kts | 239° |
| 2026-04-30 18:50 | 52.89708 | 6.72994 | 19848 ft | 432 kts | 239° |
| 2026-04-30 18:50 | 52.88266 | 6.68656 | 19434 ft | 429 kts | 239° |
| 2026-04-30 18:50 | 52.86853 | 6.64368 | 19018 ft | 426 kts | 239° |
| 2026-04-30 18:51 | 52.85453 | 6.60096 | 18612 ft | 422 kts | 240° |
| 2026-04-30 18:51 | 52.84052 | 6.55817 | 18200 ft | 419 kts | 240° |
| 2026-04-30 18:51 | 52.82684 | 6.51633 | 17798 ft | 417 kts | 240° |
| 2026-04-30 18:51 | 52.81319 | 6.47464 | 17404 ft | 414 kts | 239° |
| 2026-04-30 18:52 | 52.79950 | 6.43285 | 17001 ft | 411 kts | 239° |
| 2026-04-30 18:52 | 52.78595 | 6.39156 | 16601 ft | 409 kts | 239° |
| 2026-04-30 18:52 | 52.77262 | 6.35100 | 16206 ft | 406 kts | 239° |
| 2026-04-30 18:52 | 52.75921 | 6.31022 | 15804 ft | 405 kts | 238° |
| 2026-04-30 18:53 | 52.74549 | 6.26865 | 15388 ft | 413 kts | 239° |
| 2026-04-30 18:53 | 52.73183 | 6.22732 | 14976 ft | 412 kts | 239° |
| 2026-04-30 18:53 | 52.71820 | 6.18608 | 14568 ft | 410 kts | 239° |
| 2026-04-30 18:53 | 52.70468 | 6.14527 | 14173 ft | 408 kts | 238° |
| 2026-04-30 18:54 | 52.69114 | 6.10444 | 13811 ft | 404 kts | 238° |
| 2026-04-30 18:54 | 52.67790 | 6.06461 | 13541 ft | 397 kts | 238° |
| 2026-04-30 18:54 | 52.66481 | 6.02524 | 13232 ft | 392 kts | 238° |
| 2026-04-30 18:54 | 52.65169 | 5.98590 | 12850 ft | 388 kts | 238° |
| 2026-04-30 18:55 | 52.63881 | 5.94732 | 12451 ft | 385 kts | 238° |
| 2026-04-30 18:55 | 52.61333 | 5.87122 | 11613 ft | 381 kts | 238° |
| 2026-04-30 18:55 | 52.60054 | 5.83313 | 11140 ft | 379 kts | 238° |
| 2026-04-30 18:56 | 52.57579 | 5.75940 | 10565 ft | 350 kts | 238° |
| 2026-04-30 18:56 | 52.56442 | 5.72557 | 10411 ft | 335 kts | 238° |
| 2026-04-30 18:56 | 52.55335 | 5.69277 | 10137 ft | 323 kts | 237° |
| 2026-04-30 18:57 | 52.53232 | 5.63065 | 9730 ft | 303 kts | 237° |
| 2026-04-30 18:57 | 52.52220 | 5.60081 | 9545 ft | 301 kts | 237° |
| 2026-04-30 18:57 | 52.51245 | 5.56997 | 9201 ft | 301 kts | 242° |
| 2026-04-30 18:58 | 52.49755 | 5.50650 | 8698 ft | 300 kts | 248° |
| 2026-04-30 18:58 | 52.49064 | 5.47405 | 8435 ft | 300 kts | 248° |
| 2026-04-30 18:58 | 52.48378 | 5.44178 | 8186 ft | 298 kts | 248° |
| 2026-04-30 18:59 | 52.47015 | 5.37827 | 7689 ft | 296 kts | 247° |
| 2026-04-30 19:00 | 52.44985 | 5.28452 | 7325 ft | 294 kts | 246° |
| 2026-04-30 19:00 | 52.44292 | 5.25271 | 7318 ft | 294 kts | 246° |
| 2026-04-30 19:00 | 52.42930 | 5.19025 | 7346 ft | 294 kts | 246° |
| 2026-04-30 19:01 | 52.41575 | 5.12740 | 7334 ft | 294 kts | 246° |
| 2026-04-30 19:01 | 52.40898 | 5.09587 | 7310 ft | 293 kts | 246° |
| 2026-04-30 19:02 | 52.39558 | 5.03319 | 7305 ft | 293 kts | 246° |
| 2026-04-30 19:02 | 52.38209 | 4.97017 | 7268 ft | 293 kts | 247° |
| 2026-04-30 19:03 | 52.36866 | 4.90764 | 7298 ft | 293 kts | 247° |
| 2026-04-30 19:03 | 52.35524 | 4.84506 | 7307 ft | 293 kts | 246° |
| 2026-04-30 19:04 | 52.34172 | 4.78216 | 7305 ft | 293 kts | 247° |
| 2026-04-30 19:04 | 52.32818 | 4.71923 | 7305 ft | 293 kts | 247° |
| 2026-04-30 19:05 | 52.31471 | 4.65665 | 7302 ft | 293 kts | 247° |
| 2026-04-30 19:05 | 52.30126 | 4.59424 | 7217 ft | 289 kts | 247° |
| 2026-04-30 19:06 | 52.28800 | 4.53268 | 6735 ft | 285 kts | 247° |
| 2026-04-30 19:06 | 52.28161 | 4.50252 | 6603 ft | 276 kts | 247° |
| 2026-04-30 19:06 | 52.26939 | 4.44443 | 6267 ft | 269 kts | 247° |
| 2026-04-30 19:07 | 52.25739 | 4.38679 | 5811 ft | 267 kts | 246° |
| 2026-04-30 19:07 | 52.24898 | 4.36067 | 5656 ft | 255 kts | 221° |
| 2026-04-30 19:08 | 52.21977 | 4.34437 | 5231 ft | 218 kts | 159° |
| 2026-04-30 19:08 | 52.20117 | 4.37868 | 4423 ft | 216 kts | 99° |
| 2026-04-30 19:08 | 52.20033 | 4.40297 | 4271 ft | 209 kts | 94° |
| 2026-04-30 19:09 | 52.20090 | 4.44750 | 3844 ft | 186 kts | 92° |
| 2026-04-30 19:09 | 52.20139 | 4.46795 | 3617 ft | 175 kts | 92° |
| 2026-04-30 19:09 | 52.20193 | 4.48727 | 3438 ft | 167 kts | 90° |
| 2026-04-30 19:10 | 52.20810 | 4.52320 | 2959 ft | 167 kts | 72° |
| 2026-04-30 19:10 | 52.21995 | 4.55675 | 2507 ft | 171 kts | 65° |
| 2026-04-30 19:11 | 52.22628 | 4.57295 | 2286 ft | 170 kts | 65° |
| 2026-04-30 19:11 | 52.23865 | 4.60508 | 1840 ft | 165 kts | 65° |
| 2026-04-30 19:11 | 52.24459 | 4.62061 | 1630 ft | 158 kts | 65° |
| 2026-04-30 19:12 | 52.25028 | 4.63552 | 1414 ft | 151 kts | 65° |
| 2026-04-30 19:12 | 52.25570 | 4.64974 | 1214 ft | 145 kts | 65° |
| 2026-04-30 19:12 | 52.26087 | 4.66331 | 1040 ft | 139 kts | 65° |
| 2026-04-30 19:13 | 52.27126 | 4.69035 | 658 ft | 140 kts | 64° |
| 2026-04-30 19:13 | 52.28151 | 4.71739 | 287 ft | 141 kts | 64° |
| 2026-04-30 19:13 | 52.28674 | 4.73076 | 125 ft | 140 kts | 65° |
| 2026-04-30 19:14 | 52.29173 | 4.74403 | 8 ft | 132 kts | 60° |
| 2026-04-30 19:14 | 52.29515 | 4.75297 | 5 ft | 50 kts | 57° |
| 2026-04-30 19:14 | 52.29685 | 4.75701 | 4 ft | 36 kts | 39° |
| 2026-04-30 19:14 | 52.29872 | 4.75880 | 5 ft | 22 kts | 28° |
| 2026-04-30 19:15 | 52.29948 | 4.75948 | 6 ft | 6 kts | 29° |
| 2026-04-30 19:15 | 52.30022 | 4.76066 | 8 ft | 11 kts | 58° |
| 2026-04-30 19:15 | 52.30073 | 4.76196 | 6 ft | 16 kts | 58° |
| 2026-04-30 19:16 | 52.30143 | 4.76383 | 7 ft | 21 kts | 58° |
| 2026-04-30 19:16 | 52.30230 | 4.76604 | 5 ft | 25 kts | 57° |
| 2026-04-30 19:16 | 52.30434 | 4.77139 | 12 ft | 28 kts | 58° |
| 2026-04-30 19:17 | 52.30536 | 4.77416 | 14 ft | 29 kts | 59° |
| 2026-04-30 19:17 | 52.30826 | 4.77603 | 17 ft | 18 kts | 2° |
| 2026-04-30 19:17 | 52.30877 | 4.77607 | 18 ft | 0 kts | 3° |
| 2026-04-30 19:18 | 52.30878 | 4.77607 | 18 ft | 1 kts | 3° |
| 2026-04-30 19:18 | 52.30942 | 4.77614 | 18 ft | 11 kts | 4° |
| 2026-04-30 19:19 | 52.31015 | 4.77577 | 18 ft | 11 kts | 311° |
| 2026-04-30 19:19 | 52.31060 | 4.77470 | 19 ft | 11 kts | 300° |
| 2026-04-30 19:19 | 52.31076 | 4.77210 | 19 ft | 7 kts | 272° |
| 2026-04-30 19:20 | 52.31073 | 4.77148 | 19 ft | 4 kts | 235° |
| 2026-04-30 19:20 | 52.31043 | 4.77124 | 19 ft | 5 kts | 191° |
| 2026-04-30 19:20 | 52.31014 | 4.77118 | 20 ft | 0 kts | 187° |